Hlavní strana
METAR-TAF:

METAR-TAF

Letiště :

St. Gallen, Švýcarsko

zeměpisná šířka: 47-29-06N, zeměpisná délka: 009-33-43E, výška: 398 m

Aktuální stav počasí

Zpráva byla vytvořena před 25 minutami, v 07:50 UTC
Západní vítr 9 kt
Teplota 21°C
Vlhkost vzduchu 78%
Tlak 1014 hPa
Viditelnost 10 km a více
Žádná oblačnost pod 1500 m, nevyskytují se cumulonimby.

METAR: LSZR 190750Z 27009KT CAVOK 21/17 Q1014 RMK D

Čas: 10:15 (08:15 UTC)

Předpověď počasí

Zpráva byla vytvořena před 2 hodinami a 50 minutami, v 05:25 UTC
Předpověď platná od 19 v 06 UTC do 19 v 15 UTC
vítr z různých směrů 2 kt
Viditelnost 10 km a více
Žádná oblačnost pod 1500 m, nevyskytují se cumulonimby.
Pravděpodobnost 40% :
Dočasný
od 19 v 12 UTC do 19 v 15 UTC
Viditelnost 10 km a více
Skoro jasno ve výšce 8000 ft

TAF: LSZR 190525Z 1906/1915 VRB02KT CAVOK PROB40 TEMPO 1912/1915 9999 FEW080

Stav a předpovědi počasí z více než 4 000 letišť (zprávy METAR a TAF).

Červené a žluté tečky na mapě představují dostupné meteorologické stanice.

Když kurzor umístíte na tečku, zobrazí se název stanice.

Pak kliknutím zobrazíte stav a předpověď počasí.

Chcete-li změnit mapu, kliknutím na zelené tlačítko se znaménkem +mapu přiblížíte, kliknutím na zelené tlačítko se znaménkem – mapu oddálíte a kliknutím na zelené šipky přejdete na sousední mapy.


METAR-TAF: